Flight Track Log - Related Links

Times and Time Zones

All times are in EDT time to prevent confusion due to time zone crossing. See the UAL582 flight status page for this flight to view local times or setup timezone preferences in your user account.

Time Position Orientation Groundspeed Altitude Reporting Facility
EDT Latitude Longitude Course Direction KTS MPH feet Rate Location/Type
Sat 12:44:52 PM 33.9167 -118.4667 90° East 206 237 1,800  Level Southern California TRACON
Sat 12:45:32 PM 33.8967 -118.5039 237° Southwest 231 266 3,100 2,471 Climbing Los Angeles Center
Sat 12:46:00 PM 33.7872 -118.6496 132° Southeast  Level FlightAware Approximate
Sat 12:46:34 PM 33.8403 -118.5761 227° Southwest 280 322 6,000  Level Los Angeles Center
Sat 12:47:00 PM 33.7096 -118.5495 134° Southeast  Level FlightAware Approximate
Sat 12:47:48 PM 33.7661 -118.5836 185° South 296 341 8,600  Level Los Angeles Center
Sat 12:48:00 PM 33.6684 -118.4273 101° East  Level FlightAware Approximate
Sat 12:48:51 PM 33.6886 -118.5133 143° Southeast 293 337 12,100  Level Los Angeles Center
Sat 12:49:00 PM 33.6333 -118.3000 90° East  Level FlightAware Approximate
Sat 12:49:53 PM 33.6567 -118.4014 109° East 331 381 13,900  Level Los Angeles Center
Sat 12:50:00 PM 33.6333 -118.1633 90° East  Level FlightAware Approximate
Sat 12:50:55 PM 33.6542 -118.2869 91° East 350 403 16,100  Level Los Angeles Center
Sat 12:51:57 PM 33.6536 -118.1686 90° East 360 414 18,200 1,403 Climbing Los Angeles Center
Sat 12:52:59 PM 33.6819 -118.0458 74° East 396 456 19,000 484 Climbing Los Angeles Center
Sat 12:54:01 PM 33.6939 -117.8778 85° East 431 496 19,200 750 Climbing Los Angeles Center
Sat 12:55:15 PM 33.6894 -117.7328 92° East 436 502 20,700 1,752 Climbing Los Angeles Center
Sat 12:56:18 PM 33.6839 -117.5614 92° East 430 495 23,200 1,728 Climbing Los Angeles Center
Sat 12:57:20 PM 33.6786 -117.4183 92° East 430 495 24,300 1,065 Climbing Los Angeles Center
Sat 12:58:22 PM 33.6439 -117.2808 107° East 437 503 25,400 1,016 Climbing Los Angeles Center
Sat 12:59:24 PM 33.5717 -117.1378 121° Southeast 438 504 26,400 968 Climbing Los Angeles Center
Sat 01:00:26 PM 33.5400 -116.9933 105° East 451 519 27,400 919 Climbing Los Angeles Center
Sat 01:01:28 PM 33.5203 -116.8389 99° East 464 534 28,300 871 Climbing Los Angeles Center
Sat 01:02:30 PM 33.5017 -116.6836 98° East 469 540 29,200 919 Climbing Los Angeles Center
Sat 01:03:32 PM 33.4814 -116.5281 99° East 470 541 30,200 1,056 Climbing Los Angeles Center
Sat 01:04:35 PM 33.4619 -116.3747 99° East 466 536 31,400 1,152 Climbing Los Angeles Center
Sat 01:05:37 PM 33.4372 -116.1883 99° East 467 537 32,600 968 Climbing Los Angeles Center
Sat 01:06:39 PM 33.4161 -116.0350 99° East 467 537 33,400 774 Climbing Los Angeles Center
Sat 01:07:41 PM 33.3961 -115.8803 99° East 469 540 34,200 774 Climbing Los Angeles Center
Sat 01:08:43 PM 33.3739 -115.7267 100° East 469 540 35,000 339 Climbing Los Angeles Center
Sat 01:09:45 PM 33.3544 -115.5781 99° East 457 526 34,900 -48 Descending Los Angeles Center
Sat 01:10:47 PM 33.3331 -115.4289 100° East 454 522 34,900  Level Los Angeles Center
Sat 01:11:49 PM 33.3083 -115.2503 99° East 454 522 34,900  Level Los Angeles Center
Sat 01:12:51 PM 33.2878 -115.1031 99° East 452 520 34,900  Level Los Angeles Center
Sat 01:13:53 PM 33.2672 -114.9539 99° East 453 521 34,900  Level Los Angeles Center
Sat 01:14:55 PM 33.2461 -114.8039 100° East 457 526 34,900 48 Level Los Angeles Center
Sat 01:15:57 PM 33.2244 -114.6553 100° East 455 524 35,000 48 Climbing Los Angeles Center
Sat 01:16:59 PM 33.2042 -114.5050 99° East 457 526 35,000  Level Los Angeles Center
Sat 01:18:01 PM 33.1758 -114.3264 101° East 456 525 35,000 -45 Level Los Angeles Center
Sat 01:19:13 PM 33.1556 -114.1575 98° East 454 522 34,900  Descending Albuquerque Center
Sat 01:20:15 PM 33.1344 -114.0061 99° East 458 527 35,000 48 Climbing Albuquerque Center
Sat 01:21:17 PM 33.1133 -113.8561 99° East 459 528 35,000  Level Albuquerque Center
Sat 01:22:19 PM 33.0928 -113.7047 99° East 462 532 35,000  Level Albuquerque Center
Sat 01:23:21 PM 33.0714 -113.5561 100° East 458 527 35,000 -48 Level Albuquerque Center
Sat 01:24:23 PM 33.0508 -113.4069 99° East 456 525 34,900  Descending Albuquerque Center
Sat 01:25:25 PM 33.0247 -113.2275 100° East 457 526 35,000 49 Climbing Albuquerque Center
Sat 01:26:26 PM 33.0031 -113.0792 100° East 455 524 35,000 -49 Level Albuquerque Center
Sat 01:27:28 PM 32.9808 -112.9317 100° East 451 519 34,900  Descending Albuquerque Center
Sat 01:28:30 PM 32.9592 -112.7819 100° East 454 522 35,000 48 Climbing Albuquerque Center
Sat 01:29:32 PM 32.9367 -112.6322 100° East 456 525 35,000  Level Albuquerque Center
Sat 01:30:34 PM 32.9142 -112.4844 100° East 453 521 35,000 -48 Level Albuquerque Center
Sat 01:31:36 PM 32.8914 -112.3364 100° East 454 522 34,900  Descending Albuquerque Center
Sat 01:32:37 PM 32.8694 -112.1878 100° East 449 517 35,000 49 Climbing Albuquerque Center
Sat 01:33:39 PM 32.8431 -112.0122 100° East 451 519 35,000  Level Albuquerque Center
Sat 01:34:41 PM 32.8194 -111.8647 101° East 455 524 35,000  Level Albuquerque Center
Sat 01:35:43 PM 32.7972 -111.7192 100° East 451 519 35,000  Level Albuquerque Center
Sat 01:36:45 PM 32.7742 -111.5742 101° East 450 518 35,000  Level Albuquerque Center
Sat 01:37:47 PM 32.7522 -111.4286 100° East 449 517 35,000  Level Albuquerque Center
Sat 01:38:49 PM 32.7292 -111.2844 101° East 447 514 35,000  Level Albuquerque Center
Sat 01:39:51 PM 32.7000 -111.1117 101° East 447 514 35,000  Level Albuquerque Center
Sat 01:40:53 PM 32.6772 -110.9678 101° East 447 514 35,000  Level Albuquerque Center
Sat 01:41:55 PM 32.6531 -110.8242 101° East 446 513 35,000  Level Albuquerque Center
Sat 01:42:57 PM 32.6292 -110.6825 101° East 443 510 35,000  Level Albuquerque Center
Sat 01:43:59 PM 32.6058 -110.5389 101° East 444 511 35,000  Level Albuquerque Center
Sat 01:45:00 PM 32.5836 -110.3969 100° East 441 507 35,000  Level Albuquerque Center
Sat 01:46:02 PM 32.5544 -110.2256 101° East 442 509 35,000  Level Albuquerque Center
Sat 01:47:04 PM 32.5292 -110.0842 102° East 441 507 35,000  Level Albuquerque Center
Sat 01:48:06 PM 32.5053 -109.9414 101° East 443 510 35,000  Level Albuquerque Center
Sat 01:49:08 PM 32.4828 -109.7992 101° East 442 509 35,000 -48 Level Albuquerque Center
Sat 01:50:10 PM 32.4567 -109.6569 102° East 443 510 34,900 -48 Descending Albuquerque Center
Sat 01:51:12 PM 32.4264 -109.5153 104° East 444 511 34,900 49 Level Albuquerque Center
Sat 01:52:13 PM 32.3928 -109.3442 103° East 446 513 35,000 49 Climbing Albuquerque Center
Sat 01:53:15 PM 32.3683 -109.2025 102° East 444 511 35,000  Level Albuquerque Center
Sat 01:54:17 PM 32.3433 -109.0597 102° East 444 511 35,000  Level Albuquerque Center
Sat 01:55:19 PM 32.3175 -108.9169 102° East 445 512 35,000  Level Albuquerque Center
Sat 01:56:21 PM 32.2931 -108.7739 101° East 445 512 35,000  Level Albuquerque Center
Sat 01:57:22 PM 32.2700 -108.6328 101° East 442 509 35,000  Level Albuquerque Center
Sat 01:58:24 PM 32.2436 -108.4908 102° East 442 509 35,000 -48 Level Albuquerque Center
Sat 01:59:26 PM 32.2144 -108.3244 102° East 436 502 34,900 -49 Descending Albuquerque Center
Sat 02:00:27 PM 32.1883 -108.1831 102° East 440 506 34,900  Level Albuquerque Center
Sat 02:01:29 PM 32.1614 -108.0439 103° East 439 505 34,900  Level Albuquerque Center
Sat 02:02:31 PM 32.1347 -107.9031 103° East 441 507 34,900 390 Level Albuquerque Center
Sat 02:03:32 PM 32.1075 -107.7625 103° East 443 510 35,700 878 Climbing Albuquerque Center
Sat 02:04:34 PM 32.0814 -107.6244 103° East 437 503 36,700 581 Climbing Albuquerque Center
Sat 02:05:36 PM 32.0500 -107.4617 103° East 430 495 36,900 146 Climbing Albuquerque Center
Sat 02:06:37 PM 32.0228 -107.3219 103° East 436 502 37,000 49 Climbing Albuquerque Center
Sat 02:07:39 PM 31.9964 -107.1819 102° East 440 506 37,000  Level Albuquerque Center
Sat 02:08:40 PM 31.9692 -107.0450 103° East 437 503 37,000  Level Albuquerque Center
Sat 02:09:42 PM 31.9428 -106.9053 103° East 438 504 37,000  Level Albuquerque Center
Sat 02:10:44 PM 31.9158 -106.7700 103° East 430 495 37,000 -49 Level Albuquerque Center
Sat 02:11:45 PM 31.8817 -106.6061 104° East 432 497 36,900 -49 Descending Albuquerque Center
Sat 02:12:47 PM 31.8553 -106.4703 103° East 437 503 36,900  Level Albuquerque Center
Sat 02:13:48 PM 31.8286 -106.3331 103° East 434 499 36,900 49 Level Albuquerque Center
Sat 02:14:50 PM 31.7969 -106.1967 105° East 444 511 37,000 48 Climbing Albuquerque Center
Sat 02:15:52 PM 31.7619 -106.0644 107° East 426 490 37,000 -49 Level Albuquerque Center
Sat 02:16:53 PM 31.7286 -105.9317 106° East 424 488 36,900 -49 Descending Albuquerque Center
Sat 02:17:55 PM 31.6953 -105.7986 106° East 425 489 36,900 48 Level Albuquerque Center
Sat 02:18:57 PM 31.6556 -105.6386 106° East 425 489 37,000 49 Climbing Albuquerque Center
Sat 02:19:58 PM 31.6208 -105.5061 107° East 425 489 37,000  Level Albuquerque Center
Sat 02:21:00 PM 31.5892 -105.3719 105° East 425 489 37,000  Level Albuquerque Center
Sat 02:22:01 PM 31.5547 -105.2392 107° East 425 489 37,000 -49 Level Albuquerque Center
Sat 02:23:03 PM 31.5217 -105.1056 106° East 426 490 36,900 -49 Descending Albuquerque Center
Sat 02:24:04 PM 31.4864 -104.9744 107° East 422 486 36,900 49 Level Albuquerque Center
Sat 02:25:06 PM 31.4528 -104.8428 107° East 419 482 37,000 48 Climbing Albuquerque Center
Sat 02:26:08 PM 31.4186 -104.7092 107° East 424 488 37,000  Level Albuquerque Center
Sat 02:27:09 PM 31.3842 -104.5783 107° East 421 484 37,000 -49 Level Albuquerque Center
Sat 02:28:11 PM 31.3425 -104.4225 107° East 419 482 36,900 -49 Descending Albuquerque Center
Sat 02:29:12 PM 31.3083 -104.2917 107° East 419 482 36,900 49 Level Albuquerque Center
Sat 02:30:14 PM 31.2733 -104.1603 107° East 422 486 37,000 49 Climbing Albuquerque Center
Sat 02:31:15 PM 31.2367 -104.0281 108° East 425 489 37,000 -49 Level Albuquerque Center
Sat 02:32:17 PM 31.2025 -103.8975 107° East 423 487 36,900 -49 Descending Albuquerque Center
Sat 02:33:18 PM 31.1672 -103.7656 107° East 424 488 36,900 49 Level Albuquerque Center
Sat 02:34:20 PM 31.1303 -103.6314 108° East 431 496 37,000 49 Climbing Albuquerque Center
Sat 02:35:21 PM 31.0908 -103.4878 108° East 432 497 37,000  Level Albuquerque Center
Sat 02:36:23 PM 31.0578 -103.3628 107° East 433 498 37,000  Level Albuquerque Center
Sat 02:37:24 PM 31.0136 -103.2036 108° East 432 497 37,000  Level Albuquerque Center
Sat 02:38:26 PM 30.9828 -103.0897 107° East 429 494 37,000  Level Albuquerque Center
Sat 02:39:27 PM 30.9386 -102.9331 108° East 427 491 37,000  Level Albuquerque Center
Sat 02:40:29 PM 30.9039 -102.8017 107° East 426 490 37,000  Level Albuquerque Center
Sat 02:41:31 PM 30.8689 -102.6692 107° East 428 493 37,000  Level Albuquerque Center
Sat 02:42:32 PM 30.8322 -102.5358 108° East 433 498 37,000  Level Albuquerque Center
Sat 02:43:34 PM 30.7958 -102.4033 108° East 433 498 37,000  Level Albuquerque Center
Sat 02:44:33 PM 30.7536 -102.2536 108° East 435 501 37,000 -50 Level Houston Center
Sat 02:45:35 PM 30.7172 -102.1211 108° East 434 499 36,900  Descending Houston Center
Sat 02:46:37 PM 30.6806 -101.9867 108° East 438 504 37,000 48 Climbing Houston Center
Sat 02:47:39 PM 30.6444 -101.8547 108° East 435 501 37,000 -48 Level Houston Center
Sat 02:48:41 PM 30.6078 -101.7219 108° East 434 499 36,900  Descending Houston Center
Sat 02:49:43 PM 30.5667 -101.5781 108° East 432 497 37,000 48 Climbing Houston Center
Sat 02:50:45 PM 30.5294 -101.4461 108° East 431 496 37,000 -48 Level Houston Center
Sat 02:51:48 PM 30.4933 -101.3142 108° East 430 495 36,900  Descending Houston Center
Sat 02:52:48 PM 30.4547 -101.1842 109° East 428 493 37,000 49 Climbing Houston Center
Sat 02:53:50 PM 30.4186 -101.0539 108° East 426 490 37,000 -48 Level Houston Center
Sat 02:54:52 PM 30.3739 -100.9003 109° East 421 484 36,900 -48 Descending Houston Center
Sat 02:55:54 PM 30.3364 -100.7725 109° East 419 482 36,900  Level Houston Center
Sat 02:56:56 PM 30.3006 -100.6444 108° East 419 482 36,900 48 Level Houston Center
Sat 02:57:58 PM 30.2631 -100.5153 109° East 421 484 37,000  Climbing Houston Center
Sat 02:59:00 PM 30.2319 -100.3856 105° East 417 480 36,900 -48 Descending Houston Center
Sat 03:00:02 PM 30.2119 -100.2506 100° East 419 482 36,900 48 Level Houston Center
Sat 03:01:04 PM 30.1881 -100.1139 101° East 425 489 37,000 49 Climbing Houston Center
Sat 03:02:05 PM 30.1636 -99.9811 102° East 420 483 37,000  Level Houston Center
Sat 03:03:07 PM 30.1403 -99.8492 102° East 419 482 37,000  Level Houston Center
Sat 03:04:09 PM 30.1133 -99.6914 101° East 417 480 37,000  Level Houston Center
Sat 03:05:11 PM 30.0900 -99.5619 102° East 413 475 37,000 -48 Level Houston Center
Sat 03:06:13 PM 30.0664 -99.4325 102° East 412 474 36,900 -48 Descending Houston Center
Sat 03:07:15 PM 30.0436 -99.3044 102° East 409 471 36,900 48 Level Houston Center
Sat 03:08:17 PM 30.0211 -99.1739 101° East 413 475 37,000 49 Climbing Houston Center
Sat 03:09:18 PM 29.9944 -99.0244 102° East 411 473 37,000  Level Houston Center
Sat 03:10:20 PM 29.9703 -98.8953 102° East 413 475 37,000  Level Houston Center
Sat 03:11:22 PM 29.9453 -98.7558 102° East 412 474 37,000  Level Houston Center
Sat 03:12:24 PM 29.9214 -98.6267 102° East 413 475 37,000  Level Houston Center
Sat 03:13:26 PM 29.8972 -98.4969 102° East 413 475 37,000  Level Houston Center
Sat 03:14:28 PM 29.8711 -98.3575 102° East 407 468 37,000  Level Houston Center
Sat 03:15:29 PM 29.8469 -98.2264 102° East 416 479 37,000  Level Houston Center
Sat 03:16:31 PM 29.8219 -98.0947 102° East 419 482 37,000  Level Houston Center
Sat 03:17:33 PM 29.7950 -97.9547 102° East 417 480 37,000  Level Houston Center
Sat 03:18:35 PM 29.7703 -97.8275 103° East 420 483 37,000 -194 Level Houston Center
Sat 03:19:37 PM 29.7517 -97.6972 99° East 415 478 36,600 -1,597 Descending Houston Center
Sat 03:20:39 PM 29.7347 -97.5667 98° East 414 476 33,700 -2,488 Descending Houston Center
Sat 03:21:40 PM 29.7169 -97.4314 99° East 424 488 31,500 -2,098 Descending Houston Center
Sat 03:22:42 PM 29.6986 -97.2914 99° East 440 506 29,400 -2,032 Descending Houston Center
Sat 03:23:44 PM 29.6806 -97.1517 98° East 441 507 27,300 -2,323 Descending Houston Center
Sat 03:24:46 PM 29.6586 -96.9883 99° East 429 494 24,600 -2,274 Descending Houston Center
Sat 03:25:48 PM 29.6408 -96.8600 99° East 408 470 22,600 -1,902 Descending Houston Center
Sat 03:26:49 PM 29.6247 -96.7367 99° East 390 449 20,700 -1,805 Descending Houston Center
Sat 03:27:51 PM 29.6067 -96.6183 100° East 373 429 18,900 -1,887 Descending Houston Center
Sat 03:28:53 PM 29.5919 -96.5022 98° East 368 423 16,800 -2,016 Descending Houston Center
Sat 03:29:53 PM 29.5742 -96.3794 99° East 359 413 14,800 -1,983 Descending Houston Center
Sat 03:30:54 PM 29.5608 -96.2706 98° East 347 399 12,800 -1,377 Descending Houston Center
Sat 03:31:55 PM 29.5536 -96.1633 94° East 333 383 12,000 -390 Descending Houston Center
Sat 03:32:57 PM 29.5939 -96.0700 64° Northeast 339 390 12,000  Level Houston Center
Sat 03:34:02 PM 29.6400 -95.9789 60° Northeast 331 381 12,000 -48 Level Houston Center
Sat 03:35:03 PM 29.6864 -95.8867 60° Northeast 331 381 11,900 -732 Descending Houston Center
Sat 03:36:05 PM 29.7319 -95.7978 59° Northeast 325 374 10,500 -2,129 Descending Houston Center
Sat 03:37:07 PM 29.7800 -95.7044 59° Northeast 283 326 7,500 -2,195 Descending Houston Center
Sat 03:38:08 PM 29.8081 -95.6167 70° East 290 334 6,000 -732 Descending Houston Center
Sat 03:39:10 PM 29.8281 -95.5325 75° East 278 320 6,000  Level Houston Center
Sat 03:40:05 PM 29.8367 -95.4453 83° East 287 330 6,000  Level Houston Center
Sat 03:41:18 PM 29.8542 -95.3397 79° East 279 321 6,000  Level Houston Center
Sat 03:42:13 PM 29.8703 -95.2631 76° East 267 307 6,000 -414 Level Houston Center
Sat 03:43:14 PM 29.8878 -95.1789 76° East 270 311 5,200 -1,475 Descending Houston Center
Sat 03:44:15 PM 29.9381 -95.1342 38° Northeast 247 284 3,000 -2,164 Descending Houston Center

Login

Don't have an account? Register now (free) for customized features, flight alerts, and more!